Weather reports worldwide

Advertisment
Besancon, France (7288): temperature & dewpoint: 16.06.2018 15:00:00 - 22.06.2018 15:00:00 (CEST)Besancon, France (7288): temperature 5cm: 16.06.2018 15:00:00 - 22.06.2018 15:00:00 (CEST)Besancon, France (7288): temperature -20cm & temperature -100cm: 16.06.2018 15:00:00 - 22.06.2018 15:00:00 (CEST)Besancon, France (7288): wind speed & gusts: 16.06.2018 15:00:00 - 22.06.2018 15:00:00 (CEST)Besancon, France (7288): wind direction: 16.06.2018 15:00:00 - 22.06.2018 15:00:00 (CEST)Besancon, France (7288): reduced air pressure: 16.06.2018 15:00:00 - 22.06.2018 15:00:00 (CEST)Besancon, France (7288): sunshine duration: 16.06.2018 15:00:00 - 22.06.2018 15:00:00 (CEST)Besancon, France (7288): precipitation: 16.06.2018 15:00:00 - 22.06.2018 15:00:00 (CEST)
Date & Time tt [°C] td [°C] tt 5cm [°C] tt -20cm [°C] tt -100cm [°C] ff [km/h] ff [kn] fx [km/h] fx [kn] dd ppp [hPa] sd [min] rr [mm]
22.06.2018 15:00:00 19,4 4,7 32,1 21,6 18,5 16 9 38 21 N 1024,3 60 0,0
22.06.2018 14:00:00 18,7 5,5 31,4 21,6 18,4 18 10 39 21 N 1024,6 60 0,0
22.06.2018 13:00:00 18,0 5,6 31,0 21,6 18,4 15 8 34 18 N 1025,0 60 0,0
22.06.2018 12:00:00 16,6 4,6 30,1 21,6 18,5 16 8 38 21 NNE 1025,3 60 0,0
22.06.2018 11:00:00 16,1 4,8 25,9 21,7 18,4 14 8 33 18 NNE 1025,4 60 0,0
22.06.2018 10:00:00 14,6 3,7 20,5 21,8 18,4 13 7 31 17 NNE 1025,7 60 0,0
22.06.2018 09:00:00 12,8 5,0 9,3 22,0 18,4 14 7 28 15 NNE 1025,8 60 0,0
22.06.2018 08:00:00 11,2 4,9 7,9 22,2 18,4 10 6 22 12 NNE 1025,6 60 0,0
22.06.2018 07:00:00 9,8 4,4 6,9 22,3 18,4 9 5 16 9 NNE 1025,4 16 0,0
22.06.2018 06:00:00 9,8 3,7 6,9 22,5 18,4 7 4 24 13 NNE 1025,1 0 0,0
22.06.2018 05:00:00 10,5 4,2 7,2 22,7 18,4 8 5 25 14 NNE 1024,8 0 0,0
22.06.2018 04:00:00 11,4 4,4 8,5 22,9 18,4 10 5 25 13 NNE 1024,4 0 0,0
22.06.2018 03:00:00 12,2 4,7 8,8 23,0 18,4 9 5 32 17 NNE 1024,0 0 0,0
22.06.2018 02:00:00 13,4 5,3 9,8 23,1 18,4 10 5 32 17 NNE 1023,7 0 0,0
22.06.2018 01:00:00 14,7 6,8 10,9 23,2 18,4 8 5 30 16 NNE 1023,1 0 0,0
22.06.2018 00:00:00 15,6 8,8 11,1 23,3 18,4 4 2 19 10 NNE 1022,5 0 0,0
21.06.2018 23:00:00 17,1 10,0 14,0 23,3 18,4 10 6 20 11 N 1022,0 0 0,0
21.06.2018 22:00:00 18,4 10,2 15,6 23,4 18,4 7 4 18 10 NNW 1021,3 8 0,0
21.06.2018 21:00:00 19,5 11,8 17,9 23,4 18,4 8 4 24 13 N 1020,4 9 0,0
21.06.2018 20:00:00 20,4 13,1 20,2 23,3 18,3 17 9 30 16 N 1019,7 14 0,0
21.06.2018 19:00:00 22,2 14,6 25,0 23,2 18,4 16 9 40 22 N 1018,7 54 0,0
21.06.2018 18:00:00 24,2 15,7 24,8 23,1 18,3 17 9 37 20 NNW 1017,7 24 0,0
21.06.2018 17:00:00 26,0 15,4 33,4 22,9 18,3 16 9 32 18 NNW 1017,0 58 0,0
21.06.2018 16:00:00 26,8 13,2 34,3 22,7 18,3 12 6 24 13 N 1016,8 50 0,0
21.06.2018 15:00:00 27,3 12,9 36,7 22,6 18,3 6 4 24 13 N 1016,9 47 0,0
21.06.2018 14:00:00 27,2 14,2 35,3 22,4 18,3 6 4 23 12 NNE 1017,2 54 0,0
21.06.2018 13:00:00 26,2 11,1 39,7 22,3 18,3 6 4 20 11 NW 1017,6 60 0,0
21.06.2018 12:00:00 25,5 12,3 35,5 22,3 18,3 6 3 20 11 NNW 1018,0 53 0,0
21.06.2018 11:00:00 24,8 15,1 34,7 22,3 18,3 8 4 19 10 N 1018,0 57 0,0
21.06.2018 10:00:00 24,4 14,8 28,2 22,4 18,3 2 1 8 5 NNE 1017,8 51 0,0
21.06.2018 09:00:00 22,2 16,2 17,5 22,5 18,3 3 1 6 3 WSW 1018,1 55 0,0
21.06.2018 08:00:00 18,6 16,4 15,2 22,6 18,3 2 1 5 3 WNW 1018,5 48 0,0
21.06.2018 07:00:00 16,7 15,6 12,2 22,7 18,2 0 0 4 2 N 1018,7 16 0,0
21.06.2018 06:00:00 15,9 15,3 11,7 22,8 18,3 0 0 3 2 N 1018,6 0 0,0
21.06.2018 05:00:00 16,2 15,4 12,0 23,0 18,3 0 0 3 1 N 1018,2 0 0,0
21.06.2018 04:00:00 16,8 15,3 12,6 23,0 18,3 0 0 4 2 N 1018,1 0 0,0
21.06.2018 03:00:00 17,5 15,5 13,0 23,1 18,2 0 0 4 2 N 1018,0 0 0,0
21.06.2018 02:00:00 19,1 16,0 14,0 23,2 18,2 2 1 4 2 S 1018,0 0 0,0
21.06.2018 01:00:00 19,5 15,6 14,4 23,3 18,2 0 0 7 4 N 1018,4 0 0,0
21.06.2018 00:00:00 20,4 16,0 15,5 23,3 18,2 0 0 3 2 N 1018,4 0 0,0
20.06.2018 23:00:00 21,6 15,9 16,2 23,3 18,3 0 0 4 2 N 1018,3 0 0,0
20.06.2018 22:00:00 23,5 15,0 17,4 23,2 18,2 0 0 4 2 N 1017,6 4 0,0
20.06.2018 21:00:00 26,9 15,0 23,0 23,1 18,2 0 0 10 5 N 1016,8 44 0,0
20.06.2018 20:00:00 28,7 14,5 27,9 23,0 18,2 4 2 12 7 NNE 1016,7 54 0,0
20.06.2018 19:00:00 29,8 14,7 32,7 22,8 18,2 3 2 12 6 NNW 1016,7 60 0,0
20.06.2018 18:00:00 29,3 13,5 35,8 22,6 18,2 9 5 15 8 N 1017,1 60 0,0
20.06.2018 17:00:00 29,9 15,2 37,7 22,4 18,2 6 3 14 8 NW 1017,4 60 0,0
20.06.2018 16:00:00 29,1 16,3 40,8 22,1 18,2 5 3 17 9 N 1017,7 60 0,0
20.06.2018 15:00:00 28,3 16,2 40,5 21,9 18,2 7 4 14 8 N 1018,1 60 0,0
20.06.2018 14:00:00 28,0 16,6 42,7 21,7 18,2 5 3 14 7 WNW 1018,6 60 0,0
20.06.2018 13:00:00 27,1 16,4 39,7 21,6 18,2 6 4 14 8 N 1019,2 60 0,0
20.06.2018 12:00:00 26,6 15,6 39,1 21,5 18,2 4 2 14 8 E 1019,5 60 0,0
20.06.2018 11:00:00 25,0 16,2 34,6 21,5 18,2 7 4 19 10 NNE 1019,8 60 0,0
20.06.2018 10:00:00 23,4 16,4 27,7 21,6 18,2 4 2 20 11 NE 1020,2 60 0,0
20.06.2018 09:00:00 21,3 16,0 16,3 21,7 18,2 5 3 19 10 NNE 1020,7 60 0,0
20.06.2018 08:00:00 18,9 15,2 14,2 21,8 18,2 4 2 14 7 NE 1021,1 60 0,0
20.06.2018 07:00:00 16,4 14,8 12,3 21,9 18,2 0 0 6 4 N 1021,3 16 0,0
20.06.2018 06:00:00 15,7 14,6 11,7 22,0 18,2 3 2 7 4 NNE 1021,5 0 0,0
20.06.2018 05:00:00 16,0 14,4 11,8 22,1 18,2 3 2 12 6 NNE 1021,5 0 0,0
20.06.2018 04:00:00 16,4 14,6 12,0 22,2 18,2 5 3 8 5 NNE 1021,6 0 0,0
20.06.2018 03:00:00 17,1 14,9 12,9 22,3 18,2 3 1 11 6 NE 1021,7 0 0,0
20.06.2018 02:00:00 17,3 14,9 13,0 22,3 18,2 4 2 12 6 NNE 1021,9 0 0,0
20.06.2018 01:00:00 17,9 15,0 13,4 22,4 18,2 5 3 14 7 NNE 1021,9 0 0,0
20.06.2018 00:00:00 18,3 14,6 13,8 22,3 18,2 5 3 8 5 NNE 1022,3 0 0,0
19.06.2018 23:00:00 20,6 14,9 15,6 22,4 18,2 2 1 17 9 NE 1021,9 0 0,0
19.06.2018 22:00:00 22,2 15,3 17,5 22,3 18,2 9 5 16 9 NNE 1021,4 4 0,0
19.06.2018 21:00:00 24,0 15,5 20,7 22,2 18,2 8 4 27 14 NNE 1021,2 49 0,0
19.06.2018 20:00:00 25,6 16,2 25,2 22,1 18,2 11 6 22 12 N 1021,2 60 0,0
19.06.2018 19:00:00 26,3 15,7 28,9 21,9 18,2 10 5 26 14 NNE 1021,3 60 0,0
19.06.2018 18:00:00 26,2 15,6 33,0 21,8 18,2 11 6 26 14 NNE 1021,6 60 0,0
19.06.2018 17:00:00 26,2 15,3 35,0 21,6 18,2 11 6 26 14 N 1022,1 60 0,0
19.06.2018 16:00:00 25,6 15,0 35,1 21,4 18,2 12 6 30 16 NNE 1022,3 60 0,0
19.06.2018 15:00:00 25,0 14,8 38,8 21,2 18,2 12 6 24 13 NNE 1022,9 60 0,0
19.06.2018 14:00:00 23,8 14,5 33,9 21,0 18,2 11 6 29 15 N 1023,4 56 0,0
19.06.2018 13:00:00 23,6 15,1 33,3 20,9 18,2 9 5 22 12 N 1023,7 53 0,0
19.06.2018 12:00:00 22,7 14,0 27,3 20,8 18,2 8 4 22 12 NNE 1024,2 48 0,0
19.06.2018 11:00:00 21,9 14,8 29,6 20,8 18,2 6 3 17 9 N 1024,6 49 0,0
19.06.2018 10:00:00 21,6 14,5 26,1 20,8 18,2 3 2 9 5 E 1024,9 60 0,0
19.06.2018 09:00:00 18,5 14,4 18,3 20,9 18,2 0 0 5 3 N 1025,5 16 0,0
19.06.2018 08:00:00 16,2 13,9 15,5 21,0 18,2 2 1 5 3 E 1025,7 0 0,0
19.06.2018 07:00:00 14,7 13,7 14,2 21,1 18,2 0 0 4 2 N 1025,8 0 0,0
19.06.2018 06:00:00 14,1 13,5 12,4 21,2 18,2 3 2 6 3 N 1025,8 0 0,0
19.06.2018 05:00:00 13,4 12,9 9,1 21,3 18,2 0 0 4 2 N 1025,4 0 0,0
19.06.2018 04:00:00 13,5 12,9 9,1 21,4 18,2 0 0 4 2 N 1025,5 0 0,0
19.06.2018 03:00:00 13,9 12,9 9,8 21,4 18,2 0 0 4 2 N 1025,3 0 0,0
19.06.2018 02:00:00 15,1 13,6 10,6 21,5 18,2 0 0 3 1 N 1024,8 0 0,0
19.06.2018 01:00:00 16,1 13,9 12,9 21,6 18,2 0 0 2 1 N 1024,8 0 0,0
19.06.2018 00:00:00 17,0 13,9 13,7 21,6 18,2 0 0 4 2 N 1024,7 0 0,0
18.06.2018 23:00:00 17,9 14,2 14,0 21,6 18,2 3 2 10 5 N 1024,4 0 0,0
18.06.2018 22:00:00 19,3 14,1 17,1 21,6 18,2 5 3 15 8 NNW 1023,8 0 0,0
18.06.2018 21:00:00 19,9 13,8 18,7 21,5 18,2 6 4 13 7 NNW 1023,5 0 0,0
18.06.2018 20:00:00 20,6 13,5 20,8 21,4 18,2 6 4 20 11 NNW 1023,2 0 0,0
18.06.2018 19:00:00 21,2 12,3 22,7 21,2 18,2 11 6 21 11 NNW 1022,9 21 0,0
18.06.2018 18:00:00 22,2 12,2 26,7 21,1 18,2 9 5 24 13 NNW 1022,7 51 0,0
18.06.2018 17:00:00 22,8 12,7 25,4 20,9 18,2 11 6 22 12 NNW 1022,5 23 0,0
18.06.2018 16:00:00 22,1 11,5 27,1 20,7 18,2 7 4 16 9 NNW 1022,7 20 0,0
18.06.2018 15:00:00 21,8 11,2 27,9 20,5 18,2 8 4 15 8 NNW 1022,9 26 0,0
18.06.2018 14:00:00 22,4 10,8 27,4 20,4 18,2 8 4 16 8 W 1022,9 52 0,0
18.06.2018 13:00:00 20,7 10,8 25,6 20,3 18,2 7 4 16 8 WNW 1023,3 29 0,0
18.06.2018 12:00:00 21,1 11,4 28,5 20,2 18,2 7 4 14 8 NNW 1023,1 51 0,0
18.06.2018 11:00:00 20,2 12,2 31,5 20,2 18,2 5 3 10 5 NNW 1023,2 60 0,0
18.06.2018 10:00:00 18,5 13,1 22,0 20,4 18,2 3 2 10 6 W 1023,3 60 0,0
18.06.2018 09:00:00 15,9 12,5 13,3 20,5 18,2 6 4 12 6 SW 1023,7 60 0,0
18.06.2018 08:00:00 13,5 12,7 9,5 20,6 18,2 3 1 7 4 SW 1023,5 60 0,0
18.06.2018 07:00:00 11,7 11,5 7,4 20,7 18,2 0 0 3 2 N 1023,6 16 0,0
18.06.2018 06:00:00 11,1 10,9 6,9 20,9 18,2 2 1 4 2 NE 1023,4 0 0,0
18.06.2018 05:00:00 11,1 10,8 7,2 21,0 18,2 2 1 3 2 NNE 1023,2 0 0,0
18.06.2018 04:00:00 11,6 11,1 7,4 21,1 18,2 0 0 4 2 N 1023,2 0 0,0
18.06.2018 03:00:00 11,9 11,3 7,8 21,2 18,2 0 0 4 2 N 1023,1 0 0,0
18.06.2018 02:00:00 12,6 11,7 8,5 21,3 18,2 0 0 4 2 N 1023,1 0 0,0
18.06.2018 01:00:00 13,4 12,6 9,1 21,4 18,2 0 0 5 3 N 1022,9 0 0,0
18.06.2018 00:00:00 14,3 12,8 9,7 21,5 18,2 0 0 3 2 N 1022,6 0 0,0
17.06.2018 23:00:00 15,5 13,0 11,5 21,5 18,2 0 0 3 2 N 1022,2 0 0,0
17.06.2018 22:00:00 16,9 12,4 12,2 21,5 18,2 0 0 5 3 N 1021,7 7 0,0
17.06.2018 21:00:00 19,1 12,4 18,2 21,5 18,2 3 2 12 7 W 1021,2 12 0,0
17.06.2018 20:00:00 19,5 12,5 19,9 21,5 18,2 4 2 14 8 WSW 1020,7 27 0,0
17.06.2018 19:00:00 20,0 13,7 20,5 21,4 18,2 6 3 12 7 SW 1020,2 13 0,0
17.06.2018 18:00:00 19,4 13,1 21,8 21,4 18,2 5 3 13 7 WSW 1020,2 7 0,0
17.06.2018 17:00:00 19,7 12,9 21,0 21,4 18,2 5 3 13 7 W 1020,4 0 0,0
17.06.2018 16:00:00 19,1 12,8 20,7 21,3 18,1 8 4 16 9 WSW 1020,4 0 0,0
17.06.2018 15:00:00 19,1 12,8 20,5 21,3 18,1 4 2 12 6 W 1020,3 0 0,2
17.06.2018 14:00:00 18,1 13,8 19,3 21,3 18,1 3 2 20 11 W 1020,5 0 0,0
17.06.2018 13:00:00 19,4 14,6 20,9 21,3 18,2 3 2 10 5 SW 1020,1 7 0,0
17.06.2018 12:00:00 17,7 14,4 18,4 21,3 18,1 4 2 9 5 WSW 1020,4 0 0,0
17.06.2018 11:00:00 17,0 13,7 17,1 21,4 18,1 0 0 10 5 N 1020,3 0 0,0
17.06.2018 10:00:00 16,7 14,7 17,1 21,5 18,1 6 3 14 8 W 1020,1 0 0,0
17.06.2018 09:00:00 17,9 14,2 18,9 21,5 18,2 2 1 8 4 N 1019,6 0 0,0
17.06.2018 08:00:00 16,7 14,7 16,2 21,7 18,1 3 2 6 4 W 1019,3 24 0,0
17.06.2018 07:00:00 15,0 14,4 10,7 21,8 18,2 2 1 4 2 NNE 1019,1 42 0,0
17.06.2018 06:00:00 13,9 13,3 10,4 21,9 18,2 2 1 3 1 NNE 1018,7 0 0,0
17.06.2018 05:00:00 14,5 13,9 10,6 21,9 18,1 0 0 5 3 N 1018,5 0 0,0
17.06.2018 04:00:00 15,2 13,9 11,3 22,0 18,1 0 0 3 1 N 1018,0 0 0,0
17.06.2018 03:00:00 16,1 14,1 11,9 22,1 18,2 0 0 3 2 N 1017,9 0 0,0
17.06.2018 02:00:00 17,4 14,3 14,4 22,1 18,1 3 2 8 4 NE 1017,9 0 0,0
17.06.2018 01:00:00 18,0 14,3 14,8 22,2 18,1 0 0 3 2 N 1017,7 0 0,0
17.06.2018 00:00:00 18,3 14,6 14,4 22,2 18,1 0 0 4 2 N 1017,5 0 0,0
16.06.2018 23:00:00 18,6 13,9 15,2 22,2 18,1 0 0 0 0 N 1017,3 0 0,0
16.06.2018 22:00:00 19,2 13,8 15,4 22,2 18,1 0 0 8 4 N 1016,6 0 0,0
16.06.2018 21:00:00 20,7 14,3 17,5 22,1 18,1 4 2 20 11 N 1015,8 6 0,0
16.06.2018 20:00:00 22,4 15,0 22,8 21,9 18,1 11 6 25 13 NNW 1015,2 54 0,0
16.06.2018 19:00:00 23,4 14,4 26,9 21,7 18,1 13 7 29 15 NNW 1014,6 60 0,0
16.06.2018 18:00:00 25,9 10,5 32,2 21,5 18,1 5 3 14 8 WNW 1014,0 60 0,0
16.06.2018 17:00:00 25,2 10,6 35,8 21,3 18,1 6 4 16 9 NNW 1014,4 60 0,0
16.06.2018 16:00:00 25,1 11,6 38,5 21,2 18,2 5 3 16 8 WNW 1014,5 60 0,0
16.06.2018 15:00:00 24,3 13,2 30,8 20,9 18,1 7 4 18 10 N 1015,1 50 0,0

tt = temperature
td = dewpoint
tt 5cm = temperature 5cm
tt -20cm = temperature -20cm
tt -100cm = temperature -100cm
ff = wind speed
fx = gusts
dd = wind direction
ppp = reduced air pressure
sd = sunshine duration
rr = precipitation

Next stations